Lagoon City, Ontario

Past 24 Hour Conditions

This table is a summary of hourly weather conditions for the past 24 hours. This summary includes the following parameters: temperature, humidity, dew point, wind speed and direction, air pressure, visibility and/or wind chill and humidex.
Date / Time
(EDT)
Conditions Temp (°F) Humidity (%) Dew Point (°F) Wind (mph) Pressure (inches) Vis (mi) Humidex
20 August 2014
12:00 N/A 66 88 62 SE 6 29.9 N/A *
11:00 N/A 64 85 59 ESE 7 29.9 N/A *
10:00 N/A 63 83 58 SE 5 29.9 N/A *
9:00 N/A 63 83 58 E 6 29.9 N/A *
8:00 N/A 62 84 57 E 4 29.9 N/A *
7:00 N/A 59   91 57 NE 6 29.9 N/A *
6:00 N/A 60 86 55 E 5 29.8 N/A *
5:00 N/A 59   88 56 NE 7 29.8 N/A *
4:00 N/A 60 88 56 NE 5 29.9 N/A *
3:00 N/A 61 83 55 NNE 3 29.9 N/A *
2:00 N/A 64 65 52 E 6 29.8 N/A *
1:00 N/A 64 65 52 E 5 29.8 N/A *
00:00 N/A 64 70 54 E 9 29.8 N/A *
19 August 2014
23:00 N/A 65 70 55 SE 10 29.8 N/A *
22:00 N/A 66 68 55 SE 7 29.9 N/A *
21:00 N/A 68 60 54 SE 9 29.9 N/A *
20:00 N/A 70 58 55 SE 8 29.9 N/A *
19:00 N/A 72 58 56 SSE 12 29.9 N/A 77
18:00 N/A 72 59 57 SSE 13 29.8 N/A 78
17:00 N/A 73   54 55 SSE 7 29.8 N/A 78
16:00 N/A 71 62 57 SSW 9 29.9 N/A 77
15:00 N/A 70 60 55 SSW 7 29.9 N/A *
14:00 N/A 69 55 52 SW 6 29.9 N/A *
13:00 N/A 68 54 51 SSW 5 29.9 N/A *
12:00 N/A 68 46 46 SSE 12 29.9 N/A *
N/A
Not available
 ↑ 
Highest temperature
 ↓ 
Lowest temperature
*
Value not significant.

If you require additional historical weather information, please visit Climate Data Online.